Tappahannock, Virginia
Current Conditions -  °F | °C
As of 11:15 AM on Wednesday 22 Oct 2014 (Local Time) from KXSA Reporting Station
Moderate Rain Moderate Rain  
Wind Chill: 54°   Ceiling: 700
Heat Index: 54°   Visibility: 5mi
Dew Point: 50°   Wind: 6mph
Humidity: 86%   Direction: 310°NW
Pressure: 29.89"   Gusts: NA
Location:  37.93°N, 76.86°W
Report Text: KXSA 221515Z AUTO 31005KT 5SM RA OVC007 12/10 A2989 RMK AO2 T01230101
Loading
Personal Weather Stations






























Interactive Weather Map
Tropical Storm Tracking
New forecast layout! Learn more

10-Day Weather Forecast

Advertisements
Track Severe Weather on mobile